Archival Weather

Snohomish County (Paine Fld)

Everett, Washington (KPAE)

Report from: Monday, November 20, 2023 10:53 PM PST
Current time: Sunday, February 25, 2024 1:51 PM PST

Current weather – Weather history – Daily summaries
Weather forecast

Temperature8.3°C (46.9°F)
Wind chill6.4°C (43.6°F)
Dew point-1.1°C (30.0°F)
Winds 6 kts (3.1 m/s, 6.9 mph) East-Southeast (110°)
Visibility10 mi. (16.1 km)
Clouds Sky clear
Altimeter30.30 in.Hg (1026 mB)
Relative humidity52 %
Density altitude-1,157 ft. (-353 m)
Sea-level pressure102.6 kPa (1026 mB, 30.31 in.Hg)
Remarks Fully automated report
Automated weather observing station with precipitation discriminator
Flight conditions Visual Meteorological Conditions
Raw dataKPAE 210653Z AUTO 11006KT 10SM CLR 08/M01 A3030 RMK AO2 SLP263 T00831011
An error has occurred. This application may no longer respond until reloaded. Reload 🗙